Time;durP1;ratioP1;P1;durP2;ratioP2;P2;SDS_P1;SDS_P2;PMS_P1;PMS_P2;Temp;Humidity;BMP_temperature;BMP_pressure;BME280_temperature;BME280_humidity;BME280_pressure;Samples;Min_cycle;Max_cycle;Signal;HPM_P1;HPM_P2
2020/12/15 00:00:41;;;;;;;5.43;2.72;;;2.50;99.90;;;;;;5033464;28;20668;-85
2020/12/15 00:03:07;;;;;;;6.32;2.70;;;2.60;99.90;;;;;;5033606;28;20205;-85
2020/12/15 00:05:32;;;;;;;5.15;2.60;;;2.70;99.90;;;;;;5034052;28;20244;-85
2020/12/15 00:07:58;;;;;;;6.30;2.65;;;2.70;99.90;;;;;;5032399;28;20201;-85
2020/12/15 00:10:24;;;;;;;4.45;2.50;;;2.80;99.90;;;;;;5031539;28;20212;-86
2020/12/15 00:12:49;;;;;;;9.23;3.10;;;2.90;99.90;;;;;;5033963;28;20224;-86
2020/12/15 00:15:15;;;;;;;6.75;3.20;;;3.00;99.90;;;;;;5031533;28;20220;-84
2020/12/15 00:17:41;;;;;;;7.97;3.17;;;3.10;99.90;;;;;;5032858;28;20276;-85
2020/12/15 00:20:07;;;;;;;12.93;3.28;;;3.20;99.90;;;;;;5034687;28;20585;-85
2020/12/15 00:22:35;;;;;;;8.30;3.45;;;3.30;99.90;;;;;;5025786;28;20444;-85
2020/12/15 00:25:01;;;;;;;7.13;3.38;;;3.40;99.90;;;;;;5034726;28;20794;-84
2020/12/15 00:27:30;;;;;;;9.68;3.45;;;3.50;99.90;;;;;;5031769;28;20571;-84
2020/12/15 00:29:56;;;;;;;9.07;3.35;;;3.60;99.90;;;;;;5033965;28;20602;-85
2020/12/15 00:32:22;;;;;;;7.40;2.90;;;3.60;99.90;;;;;;5029722;28;20193;-85
2020/12/15 00:34:47;;;;;;;13.13;3.58;;;3.70;99.90;;;;;;5031792;28;20530;-85
2020/12/15 00:37:13;;;;;;;6.47;3.25;;;3.70;99.90;;;;;;5033756;28;20198;-85
2020/12/15 00:39:39;;;;;;;8.35;3.28;;;3.70;99.90;;;;;;5034056;28;20207;-84
2020/12/15 00:42:05;;;;;;;7.78;3.38;;;3.80;99.90;;;;;;5030692;28;20320;-84
2020/12/15 00:44:37;;;;;;;9.35;3.72;;;3.80;99.90;;;;;;5034499;28;20232;-84
2020/12/15 00:47:03;;;;;;;6.55;3.50;;;3.90;99.90;;;;;;5031297;28;20251;-86
2020/12/15 00:49:28;;;;;;;5.88;3.33;;;3.90;99.90;;;;;;5031043;28;20587;-85
2020/12/15 00:51:54;;;;;;;6.60;3.42;;;4.00;99.90;;;;;;5032418;28;20217;-85
2020/12/15 00:54:20;;;;;;;10.45;3.53;;;4.00;99.90;;;;;;5030131;28;20256;-85
2020/12/15 00:56:45;;;;;;;6.55;3.40;;;4.00;99.90;;;;;;5031956;28;20202;-85
2020/12/15 00:59:11;;;;;;;6.63;3.50;;;4.10;99.90;;;;;;5034829;28;20206;-84
2020/12/15 01:01:37;;;;;;;7.75;3.58;;;4.10;99.90;;;;;;5030139;28;20677;-84
2020/12/15 01:04:03;;;;;;;11.23;3.72;;;4.10;99.90;;;;;;5031563;28;20194;-84
2020/12/15 01:06:29;;;;;;;8.18;3.33;;;4.10;99.90;;;;;;5032405;28;20202;-84
2020/12/15 01:08:55;;;;;;;9.10;3.33;;;4.20;99.90;;;;;;5040420;28;20296;-84
2020/12/15 01:11:26;;;;;;;7.43;4.13;;;4.20;99.90;;;;;;5037202;28;20741;-85
2020/12/15 01:13:52;;;;;;;6.45;3.33;;;4.20;99.90;;;;;;5035660;28;20927;-85
2020/12/15 01:16:18;;;;;;;8.50;3.47;;;4.20;99.90;;;;;;5039830;28;20189;-85
2020/12/15 01:18:44;;;;;;;11.18;3.67;;;4.30;99.90;;;;;;5034329;28;20621;-84
2020/12/15 01:21:10;;;;;;;8.07;3.83;;;4.30;99.90;;;;;;5035271;28;20218;-85
2020/12/15 01:23:36;;;;;;;7.65;3.50;;;4.30;99.90;;;;;;5036698;28;20279;-84
2020/12/15 01:26:01;;;;;;;10.93;4.55;;;4.40;99.90;;;;;;5040699;28;20232;-84
2020/12/15 01:28:27;;;;;;;9.27;3.58;;;4.40;99.90;;;;;;5036490;28;20609;-85
2020/12/15 01:30:53;;;;;;;11.55;4.80;;;4.40;99.90;;;;;;5034109;28;20250;-86
2020/12/15 01:33:18;;;;;;;14.98;4.70;;;4.50;99.90;;;;;;5039057;28;20252;-84
2020/12/15 01:35:45;;;;;;;10.43;4.30;;;4.50;99.90;;;;;;5036680;28;20194;-85
2020/12/15 01:38:11;;;;;;;14.23;5.03;;;4.50;99.90;;;;;;5036098;28;20200;-85
2020/12/15 01:40:36;;;;;;;13.23;5.65;;;4.60;99.90;;;;;;5032942;28;20193;-85
2020/12/15 01:43:02;;;;;;;10.35;5.47;;;4.60;99.90;;;;;;5039507;28;20583;-85
2020/12/15 01:45:28;;;;;;;10.57;4.65;;;4.70;99.90;;;;;;5037126;28;20724;-85
2020/12/15 01:47:54;;;;;;;11.80;5.22;;;4.80;99.90;;;;;;5037025;28;20794;-85
2020/12/15 01:50:19;;;;;;;14.43;5.50;;;4.80;99.90;;;;;;5030206;28;20531;-85
2020/12/15 01:52:45;;;;;;;18.13;5.22;;;4.90;99.90;;;;;;5034837;28;20212;-85
2020/12/15 01:55:15;;;;;;;11.57;5.35;;;4.90;99.90;;;;;;5035205;28;20193;-85
2020/12/15 01:57:43;;;;;;;17.50;5.35;;;5.00;99.90;;;;;;5032713;28;20285;-85
2020/12/15 02:00:08;;;;;;;14.10;5.72;;;5.00;99.90;;;;;;5038226;28;20691;-85
2020/12/15 02:02:34;;;;;;;14.80;5.47;;;5.10;99.90;;;;;;5038346;28;20202;-86
2020/12/15 02:05:00;;;;;;;13.77;5.28;;;5.10;99.90;;;;;;5044704;23;20241;-69
2020/12/15 02:07:26;;;;;;;16.38;5.43;;;5.10;99.90;;;;;;5056687;28;20583;-70
2020/12/15 02:09:54;;;;;;;16.90;5.00;;;5.20;99.90;;;;;;5051290;28;20220;-70
2020/12/15 02:12:19;;;;;;;12.10;4.90;;;5.20;99.90;;;;;;5055414;28;20200;-69
2020/12/15 02:14:45;;;;;;;12.70;4.85;;;5.20;99.90;;;;;;5052552;28;20196;-70
2020/12/15 02:17:13;;;;;;;15.10;5.43;;;5.20;99.90;;;;;;5056535;28;20204;-70
2020/12/15 02:19:38;;;;;;;10.25;4.90;;;5.30;99.90;;;;;;5052568;28;20219;-69
2020/12/15 02:22:04;;;;;;;13.10;4.90;;;5.30;99.90;;;;;;5057652;28;20252;-69
2020/12/15 02:24:30;;;;;;;16.70;5.07;;;5.30;99.90;;;;;;5056776;28;20299;-70
2020/12/15 02:26:56;;;;;;;11.77;5.45;;;5.40;99.90;;;;;;5056046;28;20197;-69
2020/12/15 02:29:22;;;;;;;10.82;4.50;;;5.40;99.90;;;;;;5041675;28;20211;-69
2020/12/15 02:31:48;;;;;;;16.45;5.50;;;5.50;99.90;;;;;;5053739;28;20194;-70
2020/12/15 02:34:15;;;;;;;15.98;5.43;;;5.50;99.90;;;;;;5057116;28;20255;-69
2020/12/15 02:36:42;;;;;;;16.38;5.75;;;5.60;99.90;;;;;;5053002;28;20314;-70
2020/12/15 02:39:10;;;;;;;15.63;6.15;;;5.50;99.90;;;;;;5041216;28;20686;-70
2020/12/15 02:41:36;;;;;;;17.25;6.50;;;5.60;99.90;;;;;;5055879;28;20685;-70
2020/12/15 02:44:03;;;;;;;18.70;6.07;;;5.60;99.90;;;;;;5055721;28;20201;-70
2020/12/15 02:46:29;;;;;;;15.90;6.55;;;5.60;99.90;;;;;;5048332;28;20203;-70
2020/12/15 02:48:55;;;;;;;22.73;6.43;;;5.60;99.90;;;;;;5057088;28;20200;-70
2020/12/15 02:51:21;;;;;;;19.48;7.55;;;5.60;99.90;;;;;;5049857;28;20193;-70
2020/12/15 02:53:46;;;;;;;19.35;6.93;;;5.60;99.90;;;;;;5055437;28;20201;-69
2020/12/15 02:56:25;;;;;;;22.45;7.57;;;5.60;99.90;;;;;;5048388;28;20272;-69
2020/12/15 02:58:54;;;;;;;20.40;7.30;;;5.70;99.90;;;;;;5053572;28;20185;-70
2020/12/15 03:01:20;;;;;;;28.75;7.88;;;5.70;99.90;;;;;;5050121;28;20194;-70
2020/12/15 03:03:46;;;;;;;24.95;8.18;;;5.70;99.90;;;;;;5054425;28;20235;-70
2020/12/15 03:06:13;;;;;;;29.65;8.50;;;5.70;99.90;;;;;;5052003;28;20198;-70
2020/12/15 03:08:38;;;;;;;25.60;8.23;;;5.70;99.90;;;;;;5041994;28;20290;-70
2020/12/15 03:11:05;;;;;;;20.42;8.23;;;5.70;99.90;;;;;;5054582;28;20635;-70
2020/12/15 03:13:32;;;;;;;17.90;7.90;;;5.70;99.90;;;;;;5054012;28;20283;-70
2020/12/15 03:15:58;;;;;;;24.05;8.15;;;5.80;99.90;;;;;;5054288;28;20201;-70
2020/12/15 03:18:23;;;;;;;24.98;8.20;;;5.80;99.90;;;;;;5053509;28;20207;-70
2020/12/15 03:20:49;;;;;;;22.02;8.45;;;5.80;99.90;;;;;;5034078;28;20201;-70
2020/12/15 03:23:17;;;;;;;27.13;8.32;;;5.80;99.90;;;;;;5054974;28;20236;-70
2020/12/15 03:25:42;;;;;;;33.20;9.38;;;5.80;99.90;;;;;;5053454;28;20206;-70
2020/12/15 03:28:08;;;;;;;25.63;9.02;;;5.80;99.90;;;;;;5054383;28;20205;-70
2020/12/15 03:30:35;;;;;;;28.65;9.23;;;5.90;99.90;;;;;;5047675;28;20209;-69
2020/12/15 03:33:01;;;;;;;24.60;8.45;;;5.90;99.90;;;;;;5055673;28;20667;-70
2020/12/15 03:35:27;;;;;;;30.50;8.13;;;5.90;99.90;;;;;;5050885;28;20228;-70
2020/12/15 03:37:57;;;;;;;31.92;8.85;;;5.90;99.90;;;;;;5041030;28;20204;-70
2020/12/15 03:40:23;;;;;;;20.58;8.30;;;5.90;99.90;;;;;;5052619;28;20247;-70
2020/12/15 03:42:49;;;;;;;31.30;8.32;;;5.90;99.90;;;;;;5050285;28;20655;-70
2020/12/15 03:45:15;;;;;;;24.17;8.35;;;5.90;99.90;;;;;;5055473;28;20567;-70
2020/12/15 03:47:42;;;;;;;30.92;8.88;;;5.90;99.90;;;;;;5050496;28;20322;-70
2020/12/15 03:50:11;;;;;;;31.08;8.85;;;5.90;99.90;;;;;;5051167;28;20216;-70
2020/12/15 03:52:37;;;;;;;28.30;7.63;;;5.90;99.90;;;;;;5040103;28;20263;-70
2020/12/15 03:55:06;;;;;;;21.85;7.70;;;5.90;99.90;;;;;;5050091;28;20200;-70
2020/12/15 03:57:32;;;;;;;21.65;7.82;;;6.00;99.90;;;;;;5050841;28;20238;-70
2020/12/15 03:59:58;;;;;;;27.02;7.78;;;6.00;99.90;;;;;;5049236;28;20220;-70
2020/12/15 04:02:24;;;;;;;26.83;7.35;;;6.00;99.90;;;;;;5051006;28;20243;-70
2020/12/15 04:04:50;;;;;;;26.15;7.47;;;6.00;99.90;;;;;;5036749;28;20562;-70
2020/12/15 04:07:16;;;;;;;27.50;7.47;;;6.00;99.90;;;;;;5049406;28;20224;-70
2020/12/15 04:09:43;;;;;;;24.48;8.18;;;6.10;99.90;;;;;;5052712;28;20784;-70
2020/12/15 04:12:09;;;;;;;34.20;8.70;;;6.00;99.90;;;;;;5050674;28;20196;-70
2020/12/15 04:14:35;;;;;;;27.98;9.05;;;6.00;99.90;;;;;;5050778;28;20204;-70
2020/12/15 04:17:01;;;;;;;32.65;9.23;;;6.10;99.90;;;;;;5056178;28;21221;-70
2020/12/15 04:19:26;;;;;;;21.65;7.97;;;6.10;99.90;;;;;;5048518;28;20198;-70
2020/12/15 04:21:52;;;;;;;29.73;9.55;;;6.10;99.90;;;;;;5051877;28;20675;-70
2020/12/15 04:24:17;;;;;;;21.73;7.88;;;6.10;99.90;;;;;;5054563;28;20713;-70
2020/12/15 04:26:43;;;;;;;26.48;8.45;;;6.10;99.90;;;;;;5053774;28;20201;-70
2020/12/15 04:29:09;;;;;;;29.67;8.63;;;6.10;99.90;;;;;;5051321;28;20334;-70
2020/12/15 04:31:37;;;;;;;21.38;8.40;;;6.10;99.90;;;;;;5046686;28;20193;-70
2020/12/15 04:34:03;;;;;;;30.20;8.88;;;6.20;99.90;;;;;;5046099;28;20193;-69
2020/12/15 04:36:28;;;;;;;22.80;8.00;;;6.20;99.90;;;;;;5054809;28;20274;-70
2020/12/15 04:38:54;;;;;;;17.63;7.35;;;6.20;99.90;;;;;;5040400;28;20196;-70
2020/12/15 04:41:20;;;;;;;22.85;6.97;;;6.20;99.90;;;;;;5058970;28;20330;-70
2020/12/15 04:43:47;;;;;;;20.20;6.97;;;6.20;99.90;;;;;;5057316;28;20205;-70
2020/12/15 04:46:18;;;;;;;29.60;8.65;;;6.20;99.90;;;;;;5051168;28;20192;-70
2020/12/15 04:48:50;;;;;;;29.00;8.45;;;6.10;99.90;;;;;;5059319;28;20775;-70
2020/12/15 04:51:21;;;;;;;26.00;8.65;;;6.20;99.90;;;;;;5053111;28;20304;-70
2020/12/15 04:53:51;;;;;;;24.17;9.45;;;6.20;99.90;;;;;;5041977;28;20209;-70
2020/12/15 04:56:27;;;;;;;28.80;9.38;;;6.20;99.90;;;;;;5051887;28;20196;-70
2020/12/15 04:58:56;;;;;;;28.13;10.50;;;6.20;99.90;;;;;;5056052;28;20223;-70
2020/12/15 05:01:24;;;;;;;35.58;10.15;;;6.20;99.90;;;;;;5051862;28;20251;-70
2020/12/15 05:03:52;;;;;;;30.50;10.32;;;6.30;99.90;;;;;;5054910;28;20326;-70
2020/12/15 05:06:27;;;;;;;39.92;10.05;;;6.30;99.90;;;;;;5041329;28;20279;-70
2020/12/15 05:08:54;;;;;;;37.92;9.23;;;6.30;99.90;;;;;;5053400;28;20189;-70
2020/12/15 05:11:21;;;;;;;38.63;11.05;;;6.30;99.90;;;;;;5038943;28;20538;-70
2020/12/15 05:13:47;;;;;;;35.42;10.68;;;6.30;99.90;;;;;;5053771;28;20220;-70
2020/12/15 05:16:14;;;;;;;36.63;10.90;;;6.30;99.90;;;;;;5040356;28;20208;-70
2020/12/15 05:18:40;;;;;;;33.13;10.32;;;6.40;99.90;;;;;;5059147;28;20212;-70
2020/12/15 05:21:19;;;;;;;41.72;11.20;;;6.40;99.90;;;;;;5050889;28;20556;-70
2020/12/15 05:23:51;;;;;;;38.17;11.38;;;6.40;99.90;;;;;;5046589;28;20205;-70
2020/12/15 05:26:25;;;;;;;41.03;11.93;;;6.40;99.90;;;;;;5049195;28;20200;-70
2020/12/15 05:29:05;;;;;;;38.58;12.13;;;6.40;99.90;;;;;;5046504;28;20714;-70
2020/12/15 05:31:31;;;;;;;43.95;11.52;;;6.40;99.90;;;;;;5046530;28;20270;-70
2020/12/15 05:33:58;;;;;;;41.50;12.45;;;6.50;99.90;;;;;;5028663;28;20607;-70
2020/12/15 05:36:24;;;;;;;39.55;12.52;;;6.50;99.90;;;;;;5050429;28;20205;-70
2020/12/15 05:39:09;;;;;;;57.22;12.93;;;6.50;99.90;;;;;;5048152;28;20213;-70
2020/12/15 05:41:35;;;;;;;40.13;11.60;;;6.50;99.90;;;;;;5049500;28;20276;-70
2020/12/15 05:44:02;;;;;;;50.28;12.63;;;6.50;99.90;;;;;;5048627;28;20193;-70
2020/12/15 05:46:29;;;;;;;39.15;12.90;;;6.50;99.90;;;;;;5053633;28;20199;-70
2020/12/15 05:49:06;;;;;;;45.08;12.20;;;6.50;99.90;;;;;;5040970;28;20197;-70
2020/12/15 05:51:38;;;;;;;48.45;13.18;;;6.50;99.90;;;;;;5052715;28;20201;-70
2020/12/15 05:54:14;;;;;;;46.97;12.75;;;6.50;99.90;;;;;;5057695;28;20254;-71
2020/12/15 05:56:41;;;;;;;51.53;14.38;;;6.60;99.90;;;;;;5056102;28;20200;-70
2020/12/15 05:59:20;;;;;;;59.58;14.38;;;6.70;99.90;;;;;;5053887;28;20234;-70
2020/12/15 06:01:53;;;;;;;49.58;13.10;;;6.60;99.90;;;;;;5051523;28;20268;-70
2020/12/15 06:04:22;;;;;;;39.33;12.98;;;6.60;99.90;;;;;;5055370;28;20231;-70
2020/12/15 06:06:47;;;;;;;49.47;12.68;;;6.60;99.90;;;;;;5051622;28;20197;-70
2020/12/15 06:09:15;;;;;;;42.97;12.90;;;6.60;99.90;;;;;;5059128;28;20194;-70
2020/12/15 06:11:42;;;;;;;52.45;12.90;;;6.60;99.90;;;;;;5051969;28;20514;-70
2020/12/15 06:14:12;;;;;;;62.42;12.85;;;6.60;99.90;;;;;;5052315;28;20689;-70
2020/12/15 06:16:39;;;;;;;38.95;12.15;;;6.60;99.90;;;;;;5051157;28;21535;-70
2020/12/15 06:19:07;;;;;;;45.65;12.82;;;6.60;99.90;;;;;;5047596;28;20258;-69
2020/12/15 06:21:34;;;;;;;51.25;12.50;;;6.60;99.90;;;;;;5051945;28;20200;-70
2020/12/15 06:24:04;;;;;;;47.67;12.48;;;6.60;99.90;;;;;;5051053;28;20199;-70
2020/12/15 06:26:32;;;;;;;49.47;12.85;;;6.60;99.90;;;;;;5027337;28;20208;-69
2020/12/15 06:29:04;;;;;;;40.53;12.35;;;6.60;99.90;;;;;;5052419;28;20192;-70
2020/12/15 06:31:30;;;;;;;47.63;13.38;;;6.60;99.90;;;;;;5050852;28;20199;-70
2020/12/15 06:34:00;;;;;;;44.75;12.50;;;6.60;99.90;;;;;;5050072;28;20193;-70
2020/12/15 06:36:30;;;;;;;45.38;12.70;;;6.70;99.90;;;;;;5059379;28;20327;-70
2020/12/15 06:38:58;;;;;;;44.75;13.48;;;6.70;99.90;;;;;;5035025;28;20308;-70
2020/12/15 06:41:24;;;;;;;51.22;13.90;;;6.70;99.90;;;;;;5049823;28;20189;-70
2020/12/15 06:43:51;;;;;;;47.35;13.02;;;6.60;99.90;;;;;;5044912;28;20599;-70
2020/12/15 06:46:27;;;;;;;49.65;14.32;;;6.60;99.90;;;;;;5051163;28;20602;-70
2020/12/15 06:48:54;;;;;;;53.33;13.18;;;6.70;99.90;;;;;;5051114;28;20529;-70
2020/12/15 06:51:36;;;;;;;40.92;12.27;;;6.60;99.90;;;;;;5050079;28;20542;-70
2020/12/15 06:54:03;;;;;;;38.35;12.25;;;6.70;99.90;;;;;;5051013;28;20679;-70
2020/12/15 06:56:30;;;;;;;43.20;13.13;;;6.70;99.90;;;;;;5048175;28;20190;-71
2020/12/15 06:59:06;;;;;;;41.75;11.68;;;6.70;99.90;;;;;;5037700;28;20223;-70
2020/12/15 07:01:35;;;;;;;46.00;12.18;;;6.70;99.90;;;;;;5031898;28;20197;-71
2020/12/15 07:04:04;;;;;;;43.30;13.18;;;6.70;99.90;;;;;;5050505;28;20227;-70
2020/12/15 07:06:30;;;;;;;49.15;12.95;;;6.70;99.90;;;;;;5051179;28;20685;-71
2020/12/15 07:09:02;;;;;;;39.55;12.02;;;6.70;99.90;;;;;;5049681;28;20193;-71
2020/12/15 07:11:28;;;;;;;40.85;11.23;;;6.70;99.90;;;;;;5031397;28;20917;-71
2020/12/15 07:14:12;;;;;;;38.55;10.57;;;6.70;99.90;;;;;;5048146;28;20287;-71
2020/12/15 07:16:40;;;;;;;40.20;11.60;;;6.70;99.90;;;;;;5049420;28;20231;-71
2020/12/15 07:19:05;;;;;;;43.22;11.05;;;6.70;99.90;;;;;;5049685;28;20205;-71
2020/12/15 07:21:31;;;;;;;33.13;10.52;;;6.70;99.90;;;;;;5050629;28;20193;-71
2020/12/15 07:24:03;;;;;;;34.53;10.73;;;6.70;99.90;;;;;;5050390;28;20300;-71
2020/12/15 07:26:29;;;;;;;44.92;10.20;;;6.70;99.90;;;;;;5033832;28;20199;-71
2020/12/15 07:28:55;;;;;;;27.77;10.00;;;6.70;99.90;;;;;;5053590;28;20698;-70
2020/12/15 07:31:29;;;;;;;31.80;10.55;;;6.70;99.90;;;;;;5052163;28;20253;-70
2020/12/15 07:34:12;;;;;;;37.20;9.32;;;6.70;99.90;;;;;;5052147;28;20215;-71
2020/12/15 07:36:42;;;;;;;45.05;9.73;;;6.70;99.90;;;;;;5053559;28;20537;-71
2020/12/15 07:39:09;;;;;;;29.60;9.98;;;6.70;99.90;;;;;;5033953;28;20246;-71
2020/12/15 07:41:37;;;;;;;33.35;9.95;;;6.70;99.90;;;;;;5047850;28;20204;-71
2020/12/15 07:44:18;;;;;;;24.50;8.98;;;6.70;99.90;;;;;;5057838;28;20189;-71
2020/12/15 07:46:46;;;;;;;28.80;9.38;;;6.70;99.90;;;;;;5029578;28;21607;-71
2020/12/15 07:49:13;;;;;;;37.42;9.95;;;6.70;99.90;;;;;;5030103;28;20299;-71
2020/12/15 07:51:41;;;;;;;27.45;8.82;;;6.70;99.90;;;;;;5047356;28;20280;-70
2020/12/15 07:54:08;;;;;;;28.75;8.88;;;6.70;99.90;;;;;;5051522;28;20322;-71
2020/12/15 07:56:33;;;;;;;31.95;9.88;;;6.70;99.90;;;;;;5048530;28;20281;-71
2020/12/15 07:59:00;;;;;;;33.92;9.32;;;6.70;99.90;;;;;;5055001;28;20567;-71
2020/12/15 08:01:30;;;;;;;32.92;10.10;;;6.70;99.90;;;;;;5054831;28;20278;-71
2020/12/15 08:04:15;;;;;;;29.25;9.82;;;6.70;99.90;;;;;;5048093;28;20263;-71
2020/12/15 08:06:46;;;;;;;36.03;10.00;;;6.70;99.90;;;;;;5031361;28;20252;-71
2020/12/15 08:09:16;;;;;;;34.05;10.00;;;6.70;99.90;;;;;;5053260;28;20200;-72
2020/12/15 08:11:46;;;;;;;34.70;9.70;;;6.70;99.90;;;;;;5034230;28;20597;-71
2020/12/15 08:14:14;;;;;;;43.05;10.32;;;6.70;99.90;;;;;;5027424;28;20197;-71
2020/12/15 08:16:43;;;;;;;32.05;10.50;;;6.70;99.90;;;;;;5051205;28;20742;-72
2020/12/15 08:19:10;;;;;;;27.50;11.30;;;6.70;99.90;;;;;;5053156;28;20195;-72
2020/12/15 08:21:46;;;;;;;45.08;14.98;;;6.60;99.90;;;;;;5055402;28;20270;-71
2020/12/15 08:24:13;;;;;;;32.50;11.95;;;6.60;99.90;;;;;;5031873;28;20231;-71
2020/12/15 08:26:40;;;;;;;30.75;10.48;;;6.70;99.90;;;;;;5052040;28;20630;-71
2020/12/15 08:29:10;;;;;;;31.17;10.80;;;6.60;99.90;;;;;;5060058;28;20197;-71
2020/12/15 08:31:40;;;;;;;41.75;10.82;;;6.60;99.90;;;;;;5057187;28;20744;-71
2020/12/15 08:34:18;;;;;;;25.38;10.10;;;6.60;99.90;;;;;;5050357;28;20258;-71
2020/12/15 08:36:46;;;;;;;33.63;10.70;;;6.70;99.90;;;;;;5055419;28;20250;-71
2020/12/15 08:39:13;;;;;;;33.67;9.20;;;6.60;99.90;;;;;;5055649;28;20197;-71
2020/12/15 08:41:56;;;;;;;25.67;10.02;;;6.70;99.90;;;;;;5056115;28;20368;-71
2020/12/15 08:44:23;;;;;;;24.30;9.60;;;6.60;99.90;;;;;;5050727;28;20196;-71
2020/12/15 08:46:54;;;;;;;33.75;9.77;;;6.60;99.90;;;;;;5051496;28;20197;-71
2020/12/15 08:49:21;;;;;;;34.10;9.07;;;6.60;99.90;;;;;;5048992;28;20538;-69
2020/12/15 08:51:48;;;;;;;30.52;9.15;;;6.70;99.90;;;;;;5054999;28;20181;-71
2020/12/15 08:54:15;;;;;;;32.28;9.18;;;6.70;99.90;;;;;;5056496;28;20270;-71
2020/12/15 08:56:41;;;;;;;34.55;9.65;;;6.70;99.90;;;;;;5058856;28;20199;-71
2020/12/15 08:59:11;;;;;;;33.38;9.05;;;6.70;99.90;;;;;;5053303;28;20248;-71
2020/12/15 09:01:37;;;;;;;23.10;9.63;;;6.70;99.90;;;;;;5040274;28;20249;-71
2020/12/15 09:04:03;;;;;;;25.05;8.98;;;6.70;99.90;;;;;;5035061;28;20229;-71
2020/12/15 09:06:39;;;;;;;34.35;9.27;;;6.70;99.90;;;;;;5030930;28;20304;-71
2020/12/15 09:09:07;;;;;;;25.35;9.48;;;6.70;99.90;;;;;;5031678;28;20204;-71
2020/12/15 09:11:33;;;;;;;30.95;9.13;;;6.70;99.90;;;;;;5049728;28;20221;-71
2020/12/15 09:14:08;;;;;;;28.10;9.40;;;6.70;99.90;;;;;;5052030;28;20193;-71
2020/12/15 09:16:39;;;;;;;31.95;9.05;;;6.70;99.90;;;;;;5050576;28;20402;-71
2020/12/15 09:19:16;;;;;;;28.10;8.98;;;6.70;99.90;;;;;;5037818;28;20189;-70
2020/12/15 09:21:42;;;;;;;29.48;9.30;;;6.70;99.90;;;;;;5055589;28;20200;-71
2020/12/15 09:24:09;;;;;;;22.83;8.93;;;6.70;99.90;;;;;;5032944;28;20555;-71
2020/12/15 09:26:38;;;;;;;22.65;7.72;;;6.70;99.90;;;;;;5036487;28;20281;-71
2020/12/15 09:29:08;;;;;;;23.42;8.45;;;6.70;99.90;;;;;;5052832;28;20201;-71
2020/12/15 09:31:34;;;;;;;18.75;8.18;;;6.70;99.90;;;;;;5052909;28;20554;-71
2020/12/15 09:34:00;;;;;;;29.38;8.80;;;6.70;99.90;;;;;;5033808;28;20582;-71
2020/12/15 09:36:27;;;;;;;18.58;7.60;;;6.70;99.90;;;;;;5053073;28;20200;-71
2020/12/15 09:38:53;;;;;;;27.95;8.45;;;6.70;99.90;;;;;;5060962;28;20554;-71
2020/12/15 09:41:18;;;;;;;23.27;7.15;;;6.70;99.90;;;;;;5051292;28;20258;-71
2020/12/15 09:43:44;;;;;;;19.23;7.55;;;6.70;99.90;;;;;;5026016;28;20803;-71
2020/12/15 09:46:10;;;;;;;18.48;7.97;;;6.70;99.90;;;;;;5015735;28;20197;-71
2020/12/15 09:48:35;;;;;;;21.77;7.68;;;6.70;99.90;;;;;;5050931;28;20212;-71
2020/12/15 09:51:03;;;;;;;23.23;8.20;;;6.70;99.90;;;;;;5083237;22;20236;-85
2020/12/15 09:53:32;;;;;;;26.10;8.45;;;6.70;99.90;;;;;;5066218;28;20279;-83
2020/12/15 09:56:28;;;;;;;26.55;7.70;;;6.70;99.90;;;;;;5070507;28;20232;-82
2020/12/15 09:59:47;;;;;;;30.15;8.77;;;6.60;99.90;;;;;;5090776;28;20283;-83
2020/12/15 10:02:17;;;;;;;25.55;8.00;;;6.60;99.90;;;;;;5067439;28;20205;-82
2020/12/15 10:05:30;;;;;;;;;;;;;;;;;;;;;
2020/12/15 10:12:26;;;;;;;21.40;7.57;;;6.60;99.90;;;;;;4983495;28;20249;-86
2020/12/15 10:18:59;;;;;;;21.10;7.72;;;6.70;99.90;;;;;;4876222;29;20260;-85
2020/12/15 10:21:25;;;;;;;24.73;8.13;;;6.70;99.90;;;;;;4874158;29;20278;-82
2020/12/15 10:34:58;;;;;;;24.67;8.15;;;6.60;99.90;;;;;;4836244;29;20193;-86
2020/12/15 10:37:30;;;;;;;25.13;7.97;;;6.70;99.90;;;;;;4825535;29;20294;-83
2020/12/15 10:39:56;;;;;;;22.98;8.27;;;6.70;99.90;;;;;;4856237;29;20262;-82
2020/12/15 10:42:22;;;;;;;25.23;8.55;;;6.60;99.90;;;;;;4870934;29;20233;-84
2020/12/15 10:44:55;;;;;;;29.00;9.07;;;6.60;99.90;;;;;;4863869;29;20274;-83
2020/12/15 10:47:24;;;;;;;30.90;8.82;;;6.60;99.90;;;;;;4893053;29;20216;-82
2020/12/15 10:49:50;;;;;;;23.13;8.77;;;6.70;99.90;;;;;;4931832;28;20260;-83
2020/12/15 10:52:23;;;;;;;28.95;8.55;;;6.70;99.90;;;;;;4948921;28;20236;-82
2020/12/15 10:54:49;;;;;;;23.92;8.13;;;6.70;99.90;;;;;;4960314;28;20200;-83
2020/12/15 10:57:15;;;;;;;31.30;8.95;;;6.70;99.90;;;;;;5047348;28;20691;-83
2020/12/15 10:59:41;;;;;;;39.63;9.43;;;6.70;99.90;;;;;;5045183;28;20201;-82
2020/12/15 11:02:29;;;;;;;25.45;9.30;;;6.70;99.90;;;;;;5036105;28;20466;-85
2020/12/15 11:05:02;;;;;;;23.90;8.55;;;6.60;99.90;;;;;;5037497;28;20204;-84
2020/12/15 11:07:30;;;;;;;29.05;8.50;;;6.70;99.90;;;;;;5035766;28;20386;-84
2020/12/15 11:09:56;;;;;;;32.25;8.85;;;6.60;99.90;;;;;;5036453;28;20205;-83
2020/12/15 11:12:22;;;;;;;25.00;8.50;;;6.60;99.90;;;;;;5036315;28;20216;-83
2020/12/15 11:14:47;;;;;;;23.52;8.77;;;6.60;99.90;;;;;;5041196;28;20790;-85
2020/12/15 11:17:13;;;;;;;23.02;7.93;;;6.60;99.90;;;;;;5035168;28;20217;-83
2020/12/15 11:19:41;;;;;;;27.92;9.13;;;6.60;99.90;;;;;;5034875;28;21249;-83
2020/12/15 11:22:07;;;;;;;22.60;8.75;;;6.60;99.90;;;;;;5044223;28;20196;-84
2020/12/15 11:24:33;;;;;;;28.90;8.98;;;6.60;99.90;;;;;;5030402;28;20197;-83
2020/12/15 11:27:21;;;;;;;32.53;8.63;;;6.60;99.90;;;;;;5041329;28;20196;-82
2020/12/15 11:30:46;;;;;;;23.20;7.88;;;6.60;99.90;;;;;;5040115;28;20302;-85
2020/12/15 11:36:57;;;;;;;18.02;7.45;;;6.60;99.90;;;;;;4918328;29;20765;-84
2020/12/15 11:39:24;;;;;;;22.42;7.82;;;6.60;99.90;;;;;;4903212;29;20782;-82
2020/12/15 11:41:50;;;;;;;25.35;8.80;;;6.60;99.90;;;;;;4904738;29;20766;-84
2020/12/15 11:44:20;;;;;;;26.70;8.63;;;6.60;99.90;;;;;;4904168;29;20663;-83
2020/12/15 11:46:49;;;;;;;25.75;7.80;;;6.50;99.90;;;;;;4936242;28;20284;-82
2020/12/15 11:49:14;;;;;;;24.88;7.95;;;6.50;99.90;;;;;;4905415;29;21039;-82
2020/12/15 11:51:45;;;;;;;22.52;7.95;;;6.50;99.90;;;;;;4918302;29;20264;-84
2020/12/15 11:54:12;;;;;;;20.48;7.78;;;6.50;99.90;;;;;;4928234;29;20710;-83
2020/12/15 11:56:41;;;;;;;21.88;7.05;;;6.60;99.90;;;;;;4923164;29;20326;-84
2020/12/15 11:59:28;;;;;;;18.65;6.80;;;6.50;99.90;;;;;;4909445;29;20213;-84
2020/12/15 12:02:35;;;;;;;20.60;7.82;;;6.50;99.90;;;;;;4938306;28;20310;-85
2020/12/15 12:05:06;;;;;;;14.38;7.07;;;6.60;99.90;;;;;;4989886;23;20249;-85
2020/12/15 12:27:46;;;;;;;16.15;6.40;;;6.50;99.90;;;;;;4984752;28;20282;-85
2020/12/15 12:30:23;;;;;;;21.42;7.07;;;6.60;99.90;;;;;;4965867;28;20742;-86
2020/12/15 12:33:12;;;;;;;21.98;7.72;;;6.50;99.90;;;;;;4988861;28;20192;-86
2020/12/15 12:39:19;;;;;;;24.25;8.10;;;6.50;99.90;;;;;;5054175;27;21262;-71
2020/12/15 12:41:49;;;;;;;22.13;7.90;;;6.60;99.90;;;;;;5038016;28;20280;-71
2020/12/15 12:44:15;;;;;;;20.95;7.47;;;6.60;99.90;;;;;;5065583;28;20205;-70
2020/12/15 12:46:41;;;;;;;21.08;7.75;;;6.60;99.90;;;;;;5034680;28;20648;-71
2020/12/15 12:49:07;;;;;;;20.48;7.60;;;6.50;99.90;;;;;;5038868;28;20639;-70
2020/12/15 12:51:33;;;;;;;20.38;7.03;;;6.50;99.90;;;;;;5038049;28;20593;-70
2020/12/15 12:53:58;;;;;;;20.45;7.22;;;6.50;99.90;;;;;;5031606;28;20193;-70
2020/12/15 12:56:24;;;;;;;16.50;6.60;;;6.50;99.90;;;;;;5032018;28;20637;-70
2020/12/15 12:58:50;;;;;;;39.25;16.30;;;6.50;99.90;;;;;;5030778;28;20620;-71
2020/12/15 13:01:24;;;;;;;23.65;10.40;;;6.50;99.90;;;;;;5037206;28;20304;-71
2020/12/15 13:03:50;;;;;;;22.23;8.48;;;6.50;99.90;;;;;;5026076;28;20228;-70
2020/12/15 13:06:16;;;;;;;14.00;6.60;;;6.50;99.90;;;;;;5025555;28;20277;-70
2020/12/15 13:08:42;;;;;;;22.98;7.55;;;6.50;99.90;;;;;;5029646;28;20258;-69
2020/12/15 13:11:08;;;;;;;23.85;8.07;;;6.50;99.90;;;;;;5037406;28;20548;-70
2020/12/15 13:13:34;;;;;;;17.10;6.75;;;6.50;99.90;;;;;;5035017;28;20202;-70
2020/12/15 13:15:59;;;;;;;17.98;7.50;;;6.50;99.90;;;;;;5033096;28;20569;-70
2020/12/15 13:18:25;;;;;;;18.90;6.75;;;6.50;99.90;;;;;;5034522;28;20259;-70
2020/12/15 13:20:51;;;;;;;19.08;6.95;;;6.50;99.90;;;;;;5036460;28;20202;-70
2020/12/15 13:23:17;;;;;;;20.70;6.78;;;6.50;99.90;;;;;;5032907;28;20201;-70
2020/12/15 13:25:43;;;;;;;14.43;6.00;;;6.60;99.90;;;;;;5035914;28;20221;-70
2020/12/15 13:28:09;;;;;;;16.27;6.35;;;6.50;99.90;;;;;;5031775;28;20206;-71
2020/12/15 13:30:34;;;;;;;14.75;6.75;;;6.50;99.90;;;;;;5029745;28;20594;-70
2020/12/15 13:33:00;;;;;;;13.95;6.85;;;6.50;99.90;;;;;;5022941;28;20189;-70
2020/12/15 13:35:26;;;;;;;14.73;6.43;;;6.50;99.90;;;;;;5036755;28;20192;-70
2020/12/15 13:37:51;;;;;;;19.45;6.18;;;6.50;99.90;;;;;;5031435;28;20218;-70
2020/12/15 13:40:17;;;;;;;17.83;7.00;;;6.60;99.90;;;;;;5029435;28;20240;-70